createdAt,value
2018-04-17T00:01:12.645Z,99901.88
2018-04-17T00:03:40.199Z,99891.66
2018-04-17T00:06:07.771Z,99891.72
2018-04-17T00:08:35.342Z,99892.97
2018-04-17T00:11:03.017Z,99897.25
2018-04-17T00:13:30.578Z,99895.94
2018-04-17T00:15:58.132Z,99889.39
2018-04-17T00:18:25.719Z,99870.92
2018-04-17T00:20:53.293Z,99856.34
2018-04-17T00:23:20.847Z,99866.78
2018-04-17T00:25:48.463Z,99892.91
2018-04-17T00:28:16.076Z,99915.78
2018-04-17T00:30:43.656Z,99925.08
2018-04-17T00:33:11.672Z,99918.39
2018-04-17T00:35:39.241Z,99907.01
2018-04-17T00:38:06.806Z,99892.69
2018-04-17T00:40:34.381Z,99899.38
2018-04-17T00:43:02.006Z,99902.58
2018-04-17T00:45:29.690Z,99907.48
2018-04-17T00:47:57.249Z,99909.46
2018-04-17T00:50:24.865Z,99906.23
2018-04-17T00:52:52.541Z,99909.18
2018-04-17T00:55:20.108Z,99904.27
2018-04-17T00:57:47.677Z,99914.27
2018-04-17T01:00:15.260Z,99910.43
2018-04-17T01:02:42.949Z,99917.21
2018-04-17T01:05:10.509Z,99923.06
2018-04-17T01:07:38.129Z,99927.75
2018-04-17T01:10:05.711Z,99919.72
2018-04-17T01:12:33.333Z,99922.75
2018-04-17T01:15:00.897Z,99930.95
2018-04-17T01:17:28.471Z,99930.96
2018-04-17T01:19:56.088Z,99934.27
2018-04-17T01:22:23.705Z,99925.30
2018-04-17T01:24:51.263Z,99920.08
2018-04-17T01:27:18.887Z,99934.24
2018-04-17T01:29:46.514Z,99949.48
2018-04-17T01:32:14.090Z,99949.27
2018-04-17T01:34:41.713Z,99955.43
2018-04-17T01:37:09.385Z,99950.84
2018-04-17T01:39:36.947Z,99953.03
2018-04-17T01:42:04.507Z,99944.16
2018-04-17T01:44:32.085Z,99939.22
2018-04-17T01:46:59.668Z,99943.16
2018-04-17T01:49:27.302Z,99953.31
2018-04-17T01:51:54.856Z,99942.73
2018-04-17T01:54:22.474Z,99950.46
2018-04-17T01:56:50.108Z,99941.80
2018-04-17T01:59:17.742Z,99933.86
2018-04-17T02:01:45.314Z,99932.78
2018-04-17T02:04:12.880Z,99922.16
2018-04-17T02:06:40.454Z,99920.84
2018-04-17T02:09:08.014Z,99925.14
2018-04-17T02:11:35.681Z,99925.67
2018-04-17T02:14:03.218Z,99924.36
2018-04-17T02:16:30.837Z,99930.92
2018-04-17T02:18:58.474Z,99933.02
2018-04-17T02:21:26.038Z,99941.22
2018-04-17T02:23:53.611Z,99948.29
2018-04-17T02:26:21.173Z,99940.90
2018-04-17T02:28:48.797Z,99942.84
2018-04-17T02:31:16.356Z,99943.23
2018-04-17T02:33:43.908Z,99943.09
2018-04-17T02:36:11.476Z,99932.45
2018-04-17T02:38:39.057Z,99918.38
2018-04-17T02:41:06.623Z,99921.93
2018-04-17T02:43:34.184Z,99951.92
2018-04-17T02:46:01.806Z,99965.66
2018-04-17T02:48:29.425Z,99976.59
2018-04-17T02:50:57.009Z,99983.88
2018-04-17T02:53:24.637Z,99980.96
2018-04-17T02:55:52.224Z,99983.05
2018-04-17T02:58:19.800Z,99982.23
2018-04-17T03:00:47.365Z,99986.42
2018-04-17T03:03:14.941Z,99990.06
2018-04-17T03:05:42.502Z,99983.08
2018-04-17T03:08:10.150Z,99982.56
2018-04-17T03:10:37.769Z,99989.20
2018-04-17T03:13:05.333Z,99996.39
2018-04-17T03:15:32.908Z,100003.35
2018-04-17T03:18:00.480Z,99996.47
2018-04-17T03:20:28.117Z,99996.86
2018-04-17T03:22:55.689Z,99989.16
2018-04-17T03:25:23.365Z,99989.04
2018-04-17T03:27:50.989Z,99993.42
2018-04-17T03:30:19.406Z,99997.16
2018-04-17T03:32:47.076Z,99999.59
2018-04-17T03:35:14.711Z,100000.65
2018-04-17T03:37:42.391Z,99989.82
2018-04-17T03:40:09.956Z,99999.22
2018-04-17T03:42:37.652Z,100005.00
2018-04-17T03:45:05.266Z,100024.14
2018-04-17T03:47:32.833Z,100015.61
2018-04-17T03:50:00.461Z,100015.05
2018-04-17T03:52:28.042Z,100021.45
2018-04-17T03:54:55.625Z,100031.97
2018-04-17T03:57:23.189Z,100034.13
2018-04-17T03:59:50.811Z,100030.06
2018-04-17T04:02:18.376Z,100030.73
2018-04-17T04:04:46.017Z,100029.93
2018-04-17T04:07:13.655Z,100035.05
2018-04-17T04:09:41.216Z,100040.36
2018-04-17T04:12:08.864Z,100034.50
2018-04-17T04:14:36.434Z,100032.22
2018-04-17T04:20:18.225Z,100036.06
2018-04-17T04:22:57.780Z,100041.28
2018-04-17T04:25:37.114Z,100039.41
2018-04-17T04:28:04.741Z,100043.17
2018-04-17T04:30:32.354Z,100050.91
2018-04-17T04:32:59.976Z,100053.20
2018-04-17T04:35:27.540Z,100053.77
2018-04-17T04:37:55.165Z,100049.30
2018-04-17T04:40:22.733Z,100055.98
2018-04-17T04:42:50.306Z,100060.03
2018-04-17T04:45:17.875Z,100059.45
2018-04-17T04:47:45.436Z,100058.31
2018-04-17T04:50:13.049Z,100062.67
2018-04-17T04:52:40.613Z,100064.84
2018-04-17T04:55:08.183Z,100063.83
2018-04-17T04:57:35.787Z,100060.19
2018-04-17T05:00:03.409Z,100063.39
2018-04-17T05:02:31.049Z,100060.14
2018-04-17T05:04:58.610Z,100064.20
2018-04-17T05:07:26.225Z,100076.20
2018-04-17T05:09:53.803Z,100082.64
2018-04-17T05:12:21.361Z,100082.65
2018-04-17T05:14:48.936Z,100084.81
2018-04-17T05:17:16.505Z,100080.53
2018-04-17T05:19:44.077Z,100085.36
2018-04-17T05:22:11.641Z,100092.08
2018-04-17T05:24:39.285Z,100101.03
2018-04-17T05:27:06.845Z,100108.92
2018-04-17T05:29:34.413Z,100114.37
2018-04-17T05:32:01.989Z,100122.56
2018-04-17T05:34:29.549Z,100130.00
2018-04-17T05:36:57.119Z,100125.06
2018-04-17T05:39:24.684Z,100136.23
2018-04-17T05:41:52.289Z,100136.06
2018-04-17T05:44:19.852Z,100131.53
2018-04-17T05:46:47.420Z,100131.25
2018-04-17T05:49:14.978Z,100126.72
2018-04-17T05:51:42.616Z,100127.20
2018-04-17T05:54:10.248Z,100127.78
2018-04-17T05:56:37.881Z,100130.88
2018-04-17T05:59:05.557Z,100137.42
2018-04-17T06:01:33.159Z,100140.26
2018-04-17T06:04:00.787Z,100155.34
2018-04-17T06:06:28.456Z,100164.29
2018-04-17T06:08:56.063Z,100165.22
2018-04-17T06:11:23.761Z,100170.96
2018-04-17T06:13:51.425Z,100171.38
2018-04-17T06:16:18.987Z,100174.96
2018-04-17T06:18:46.596Z,100177.90
2018-04-17T06:21:14.173Z,100177.48
2018-04-17T06:23:41.747Z,100170.28
2018-04-17T06:26:09.355Z,100185.01
2018-04-17T06:28:36.969Z,100192.22
2018-04-17T06:31:04.609Z,100198.52
2018-04-17T06:33:32.241Z,100205.06
2018-04-17T06:35:59.825Z,100202.95
2018-04-17T06:38:27.475Z,100208.91
2018-04-17T06:40:55.117Z,100212.17
2018-04-17T06:43:22.688Z,100214.41
2018-04-17T06:45:50.267Z,100221.67
2018-04-17T06:48:17.896Z,100225.06
2018-04-17T06:50:45.512Z,100223.13
2018-04-17T06:53:13.103Z,100224.75
2018-04-17T06:55:40.748Z,100233.80
2018-04-17T06:58:08.471Z,100236.45
2018-04-17T07:00:36.053Z,100229.16
2018-04-17T07:03:03.617Z,100227.42
2018-04-17T07:05:31.257Z,100233.13
2018-04-17T07:07:58.901Z,100238.64
2018-04-17T07:10:26.469Z,100235.16
2018-04-17T07:12:54.099Z,100224.06
2018-04-17T07:15:21.787Z,100206.88
2018-04-17T07:17:49.352Z,100203.17
2018-04-17T07:20:16.977Z,100208.69
2018-04-17T07:22:44.568Z,100206.40
2018-04-17T07:25:12.205Z,100192.08
2018-04-17T07:27:39.821Z,100207.42
2018-04-17T07:30:07.413Z,100212.67
2018-04-17T07:32:35.040Z,100201.47
2018-04-17T07:35:02.622Z,100217.46
2018-04-17T07:37:30.257Z,100221.53
2018-04-17T07:39:57.928Z,100225.69
2018-04-17T07:42:25.494Z,100225.73
2018-04-17T07:44:53.060Z,100235.02
2018-04-17T07:47:31.456Z,100222.42
2018-04-17T07:49:59.005Z,100235.64
2018-04-17T07:52:26.689Z,100254.64
2018-04-17T07:54:54.338Z,100250.80
2018-04-17T07:57:21.964Z,100235.26
2018-04-17T07:59:49.536Z,100234.03
2018-04-17T08:02:17.104Z,100241.19
2018-04-17T08:04:44.777Z,100217.13
2018-04-17T08:07:12.401Z,100206.48
2018-04-17T08:09:39.977Z,100212.35
2018-04-17T08:12:07.565Z,100199.18
2018-04-17T08:14:35.236Z,100189.54
2018-04-17T08:17:02.854Z,100182.52
2018-04-17T08:19:30.416Z,100187.15
2018-04-17T08:21:57.989Z,100185.77
2018-04-17T08:24:25.566Z,100215.49
2018-04-17T08:26:53.137Z,100233.19
2018-04-17T08:29:20.708Z,100229.88
2018-04-17T08:31:48.331Z,100247.25
2018-04-17T08:34:15.957Z,100255.66
2018-04-17T08:36:43.571Z,100247.84
2018-04-17T08:39:11.148Z,100256.32
2018-04-17T08:41:38.715Z,100252.16
2018-04-17T08:44:06.354Z,100247.86
2018-04-17T08:46:33.928Z,100242.56
2018-04-17T08:49:01.634Z,100245.06
2018-04-17T08:51:29.215Z,100247.18
2018-04-17T08:53:56.840Z,100242.64
2018-04-17T08:56:24.420Z,100245.03
2018-04-17T08:58:52.067Z,100247.23
2018-04-17T09:01:19.643Z,100233.93
2018-04-17T09:03:47.216Z,100234.73
2018-04-17T09:06:14.913Z,100237.88
2018-04-17T09:08:42.572Z,100238.70
2018-04-17T09:11:10.186Z,100245.41
2018-04-17T09:13:37.761Z,100251.96
2018-04-17T09:16:05.325Z,100252.61
2018-04-17T09:18:32.906Z,100250.22
2018-04-17T09:21:00.580Z,100253.16
2018-04-17T09:23:28.313Z,100254.17
2018-04-17T09:25:55.904Z,100256.07
2018-04-17T09:28:23.506Z,100256.81
2018-04-17T09:30:51.134Z,100258.22
2018-04-17T09:33:18.761Z,100236.35
2018-04-17T09:35:46.393Z,100239.97
2018-04-17T09:38:13.978Z,100248.90
2018-04-17T09:40:41.601Z,100263.35
2018-04-17T09:43:09.169Z,100266.39
2018-04-17T09:45:36.731Z,100258.89
2018-04-17T09:48:04.361Z,100246.11
2018-04-17T09:50:31.939Z,100245.25
2018-04-17T09:52:59.521Z,100245.75
2018-04-17T09:55:27.098Z,100247.91
2018-04-17T09:57:54.719Z,100267.72
2018-04-17T10:00:22.322Z,100252.62
2018-04-17T10:02:49.896Z,100246.77
2018-04-17T10:05:17.455Z,100242.52
2018-04-17T10:07:45.086Z,100238.13
2018-04-17T10:10:12.656Z,100250.58
2018-04-17T10:12:40.227Z,100254.16
2018-04-17T10:15:07.848Z,100250.93
2018-04-17T10:17:35.507Z,100243.45
2018-04-17T10:20:03.137Z,100230.56
2018-04-17T10:22:30.719Z,100235.56
2018-04-17T10:24:58.289Z,100231.45
2018-04-17T10:27:25.889Z,100235.43
2018-04-17T10:29:53.537Z,100226.63
2018-04-17T10:32:21.199Z,100218.73
2018-04-17T10:34:48.769Z,100221.25
2018-04-17T10:37:16.357Z,100209.52
2018-04-17T10:39:43.988Z,100214.19
2018-04-17T10:42:11.599Z,100214.20
2018-04-17T10:44:39.273Z,100207.48
2018-04-17T10:47:06.844Z,100200.00
2018-04-17T10:49:34.481Z,100198.25
2018-04-17T10:52:02.072Z,100198.00
2018-04-17T10:54:29.648Z,100192.72
2018-04-17T10:56:57.222Z,100200.59
2018-04-17T10:59:24.792Z,100195.22
2018-04-17T11:01:52.383Z,100197.09
2018-04-17T11:04:19.955Z,100206.44
2018-04-17T11:06:47.578Z,100214.27
2018-04-17T11:09:15.162Z,100217.56
2018-04-17T11:11:42.742Z,100219.83
2018-04-17T11:14:10.383Z,100213.69
2018-04-17T11:16:38.776Z,100222.73
2018-04-17T11:19:06.379Z,100235.54
2018-04-17T11:21:33.962Z,100237.68
2018-04-17T11:24:01.590Z,100242.93
2018-04-17T11:26:29.214Z,100245.11
2018-04-17T11:28:56.850Z,100248.95
2018-04-17T11:31:24.489Z,100254.53
2018-04-17T11:33:52.066Z,100242.58
2018-04-17T11:36:19.646Z,100244.49
2018-04-17T11:38:47.283Z,100243.53
2018-04-17T11:41:14.910Z,100246.00
2018-04-17T11:43:42.475Z,100237.42
2018-04-17T11:46:10.070Z,100226.55
2018-04-17T11:48:37.752Z,100229.89
2018-04-17T11:51:05.332Z,100230.31
2018-04-17T11:53:32.961Z,100248.59
2018-04-17T11:56:00.537Z,100247.05
2018-04-17T11:58:28.156Z,100248.91
2018-04-17T12:00:55.721Z,100236.66
2018-04-17T12:03:23.329Z,100234.68
2018-04-17T12:05:50.933Z,100239.41
2018-04-17T12:08:18.565Z,100240.72
2018-04-17T12:10:46.194Z,100247.03
2018-04-17T12:13:13.808Z,100241.03
2018-04-17T12:15:41.431Z,100254.02
2018-04-17T12:18:09.020Z,100248.19
2018-04-17T12:20:36.593Z,100247.91
2018-04-17T12:23:04.192Z,100243.59
2018-04-17T12:25:31.830Z,100244.16
2018-04-17T12:27:59.415Z,100234.05
2018-04-17T12:30:27.050Z,100233.20
2018-04-17T12:32:54.673Z,100229.04
2018-04-17T12:35:22.236Z,100220.83
2018-04-17T12:37:49.804Z,100215.55
2018-04-17T12:40:17.405Z,100213.18
2018-04-17T12:42:44.988Z,100215.80
2018-04-17T12:45:12.575Z,100224.44
2018-04-17T12:47:40.149Z,100218.72
2018-04-17T12:50:07.768Z,100208.08
2018-04-17T12:52:35.393Z,100208.53
2018-04-17T12:55:02.965Z,100210.45
2018-04-17T12:57:30.553Z,100197.25
2018-04-17T12:59:58.120Z,100203.13
2018-04-17T13:02:25.720Z,100202.17
2018-04-17T13:04:53.280Z,100190.14
2018-04-17T13:07:20.886Z,100195.80
2018-04-17T13:09:48.443Z,100196.30
2018-04-17T13:12:16.091Z,100187.50
2018-04-17T13:14:43.735Z,100185.56
2018-04-17T13:17:11.361Z,100182.42
2018-04-17T13:19:38.991Z,100183.70
2018-04-17T13:22:06.625Z,100183.45
2018-04-17T13:24:34.257Z,100187.75
2018-04-17T13:27:01.830Z,100186.55
2018-04-17T13:29:29.523Z,100180.56
2018-04-17T13:31:57.089Z,100175.66
2018-04-17T13:34:24.650Z,100182.03
2018-04-17T13:36:52.239Z,100193.76
2018-04-17T13:39:19.823Z,100186.52
2018-04-17T13:41:47.433Z,100193.43
2018-04-17T13:44:15.018Z,100177.63
2018-04-17T13:46:42.704Z,100185.02
2018-04-17T13:49:10.275Z,100192.05
2018-04-17T13:51:37.826Z,100192.22
2018-04-17T13:54:05.402Z,100187.42
2018-04-17T13:56:33.030Z,100191.12
2018-04-17T13:59:00.609Z,100190.06
2018-04-17T14:01:28.230Z,100187.14
2018-04-17T14:03:55.852Z,100182.55
2018-04-17T14:06:23.481Z,100182.47
2018-04-17T14:08:51.120Z,100183.92
2018-04-17T14:11:18.754Z,100189.23
2018-04-17T14:13:46.384Z,100183.74
2018-04-17T14:16:14.001Z,100195.67
2018-04-17T14:18:41.572Z,100196.23
2018-04-17T14:21:09.212Z,100201.64
2018-04-17T14:23:36.784Z,100204.36
2018-04-17T14:26:04.349Z,100207.01
2018-04-17T14:28:31.929Z,100206.34
2018-04-17T14:30:59.502Z,100202.80
2018-04-17T14:33:27.099Z,100201.53
2018-04-17T14:35:54.739Z,100206.13
2018-04-17T14:38:22.365Z,100202.81
2018-04-17T14:40:50.038Z,100210.89
2018-04-17T14:43:17.664Z,100202.28
2018-04-17T14:45:45.240Z,100200.94
2018-04-17T14:48:12.835Z,100205.53
2018-04-17T14:50:40.425Z,100209.09
2018-04-17T14:53:07.972Z,100206.52
2018-04-17T14:55:35.662Z,100200.58
2018-04-17T14:58:03.291Z,100202.87
2018-04-17T15:00:30.848Z,100209.55
2018-04-17T15:02:58.425Z,100217.88
2018-04-17T15:05:26.043Z,100207.26
2018-04-17T15:07:53.729Z,100221.13
2018-04-17T15:10:21.300Z,100219.16
2018-04-17T15:12:48.896Z,100221.74
2018-04-17T15:15:16.508Z,100214.92
2018-04-17T15:17:44.061Z,100218.98
2018-04-17T15:20:11.652Z,100219.22
2018-04-17T15:22:39.218Z,100231.84
2018-04-17T15:25:06.802Z,100227.88
2018-04-17T15:27:34.357Z,100222.27
2018-04-17T15:30:01.979Z,100225.66
2018-04-17T15:32:29.641Z,100222.14
2018-04-17T15:34:57.200Z,100224.81
2018-04-17T15:37:24.769Z,100223.42
2018-04-17T15:39:52.344Z,100228.39
2018-04-17T15:42:20.025Z,100226.47
2018-04-17T15:44:47.611Z,100227.37
2018-04-17T15:47:15.177Z,100225.88
2018-04-17T15:49:42.817Z,100227.80
2018-04-17T15:52:10.385Z,100224.97
2018-04-17T15:54:38.026Z,100231.14
2018-04-17T15:57:05.692Z,100231.55
2018-04-17T15:59:33.365Z,100219.61
2018-04-17T16:02:00.944Z,100227.16
2018-04-17T16:04:28.508Z,100227.13
2018-04-17T16:06:56.119Z,100226.56
2018-04-17T16:09:23.759Z,100227.44
2018-04-17T16:11:51.387Z,100231.19
2018-04-17T16:14:19.837Z,100225.59
2018-04-17T16:16:47.443Z,100228.06
2018-04-17T16:19:15.102Z,100231.23
2018-04-17T16:21:42.661Z,100235.38
2018-04-17T16:24:10.237Z,100237.37
2018-04-17T16:26:37.829Z,100240.48
2018-04-17T16:29:05.473Z,100246.39
2018-04-17T16:31:33.118Z,100247.22
2018-04-17T16:34:00.689Z,100254.47
2018-04-17T16:36:28.257Z,100261.91
2018-04-17T16:38:55.892Z,100268.09
2018-04-17T16:41:23.554Z,100279.06
2018-04-17T16:43:51.162Z,100281.42
2018-04-17T16:46:18.724Z,100282.73
2018-04-17T16:48:46.343Z,100293.41
2018-04-17T16:51:13.984Z,100292.98
2018-04-17T16:53:41.622Z,100288.95
2018-04-17T16:56:09.262Z,100297.08
2018-04-17T16:58:36.824Z,100303.38
2018-04-17T17:01:04.413Z,100300.53
2018-04-17T17:03:32.016Z,100310.88
2018-04-17T17:05:59.677Z,100322.80
2018-04-17T17:08:27.263Z,100327.80
2018-04-17T17:10:54.985Z,100334.81
2018-04-17T17:13:22.618Z,100341.89
2018-04-17T17:15:50.247Z,100349.85
2018-04-17T17:18:17.881Z,100352.97
2018-04-17T17:20:45.465Z,100338.05
2018-04-17T17:23:13.188Z,100334.66
2018-04-17T17:25:40.818Z,100338.62
2018-04-17T17:28:08.450Z,100338.28
2018-04-17T17:30:36.055Z,100332.72
2018-04-17T17:33:03.752Z,100347.65
2018-04-17T17:35:31.380Z,100352.61
2018-04-17T17:37:58.968Z,100351.88
2018-04-17T17:40:26.664Z,100351.45
2018-04-17T17:42:54.295Z,100354.91
2018-04-17T17:45:21.861Z,100359.52
2018-04-17T17:47:49.497Z,100355.67
2018-04-17T17:50:17.103Z,100358.05
2018-04-17T17:52:44.787Z,100361.78
2018-04-17T17:55:12.395Z,100364.39
2018-04-17T17:57:40.072Z,100365.63
2018-04-17T18:00:07.642Z,100367.92
2018-04-17T18:02:35.286Z,100378.69
2018-04-17T18:05:02.932Z,100383.46
2018-04-17T18:07:30.542Z,100384.12
2018-04-17T18:09:58.180Z,100399.16
2018-04-17T18:12:25.757Z,100402.73
2018-04-17T18:14:53.465Z,100416.69
2018-04-17T18:17:21.049Z,100418.45
2018-04-17T18:19:48.613Z,100413.68
2018-04-17T18:22:16.196Z,100421.38
2018-04-17T18:24:43.774Z,100425.80
2018-04-17T18:27:11.393Z,100430.80
2018-04-17T18:29:38.950Z,100432.52
2018-04-17T18:32:06.602Z,100436.54
2018-04-17T18:34:34.229Z,100436.63
2018-04-17T18:37:01.796Z,100441.27
2018-04-17T18:39:29.415Z,100442.30
2018-04-17T18:41:56.990Z,100444.71
2018-04-17T18:44:24.570Z,100446.02
2018-04-17T18:46:52.177Z,100448.91
2018-04-17T18:49:19.799Z,100442.28
2018-04-17T18:51:47.380Z,100442.66
2018-04-17T18:54:15.014Z,100444.95
2018-04-17T18:56:42.573Z,100443.03
2018-04-17T18:59:10.197Z,100447.46
2018-04-17T19:01:37.896Z,100445.04
2018-04-17T19:04:05.525Z,100447.94
2018-04-17T19:06:33.152Z,100453.53
2018-04-17T19:09:00.730Z,100449.14
2018-04-17T19:11:28.293Z,100448.58
2018-04-17T19:13:55.873Z,100450.40
2018-04-17T19:16:23.455Z,100448.62
2018-04-17T19:18:51.076Z,100448.34
2018-04-17T19:21:18.718Z,100451.98
2018-04-17T19:23:46.304Z,100454.45
2018-04-17T19:26:13.942Z,100460.89
2018-04-17T19:28:41.577Z,100464.81
2018-04-17T19:31:09.295Z,100468.31
2018-04-17T19:33:36.863Z,100470.61
2018-04-17T19:36:04.535Z,100478.22
2018-04-17T19:38:32.114Z,100474.39
2018-04-17T19:40:59.683Z,100474.90
2018-04-17T19:43:27.348Z,100481.34
2018-04-17T19:45:54.961Z,100479.99
2018-04-17T19:48:22.540Z,100483.38
2018-04-17T19:50:50.195Z,100487.67
2018-04-17T19:53:17.764Z,100489.77
2018-04-17T19:55:45.471Z,100497.58
2018-04-17T19:58:13.080Z,100499.17
2018-04-17T20:00:40.763Z,100499.68
2018-04-17T20:03:08.342Z,100502.28
2018-04-17T20:05:35.908Z,100502.47
2018-04-17T20:08:03.485Z,100500.37
2018-04-17T20:10:31.056Z,100506.53
2018-04-17T20:12:58.633Z,100505.27
2018-04-17T20:15:26.273Z,100501.86
2018-04-17T20:17:53.918Z,100505.81
2018-04-17T20:20:21.491Z,100507.91
2018-04-17T20:22:49.128Z,100510.55
2018-04-17T20:25:16.761Z,100512.58
2018-04-17T20:27:44.333Z,100515.56
2018-04-17T20:30:11.931Z,100514.96
2018-04-17T20:32:39.513Z,100515.37
2018-04-17T20:35:07.081Z,100509.88
2018-04-17T20:37:34.717Z,100508.52
2018-04-17T20:40:02.302Z,100507.59
2018-04-17T20:42:29.941Z,100507.91
2018-04-17T20:44:57.683Z,100502.89
2018-04-17T20:47:25.248Z,100510.17
2018-04-17T20:49:52.845Z,100511.61
2018-04-17T20:52:20.461Z,100511.70
2018-04-17T20:54:48.065Z,100512.41
2018-04-17T20:57:15.680Z,100508.80
2018-04-17T20:59:43.256Z,100512.60
2018-04-17T21:02:10.865Z,100512.09
2018-04-17T21:04:38.418Z,100510.73
2018-04-17T21:07:05.999Z,100510.46
2018-04-17T21:09:33.642Z,100513.17
2018-04-17T21:12:01.268Z,100515.45
2018-04-17T21:14:28.838Z,100517.34
2018-04-17T21:16:56.493Z,100515.53
2018-04-17T21:19:24.177Z,100518.56
2018-04-17T21:21:51.884Z,100518.42
2018-04-17T21:24:19.504Z,100519.20
2018-04-17T21:26:47.107Z,100511.75
2018-04-17T21:29:14.754Z,100516.13
2018-04-17T21:31:42.324Z,100513.61
2018-04-17T21:34:09.972Z,100515.06
2018-04-17T21:36:37.599Z,100511.81
2018-04-17T21:39:05.978Z,100510.73
2018-04-17T21:41:33.554Z,100509.98
2018-04-17T21:44:01.185Z,100507.19
2018-04-17T21:46:28.813Z,100500.97
2018-04-17T21:48:56.380Z,100503.38
2018-04-17T21:51:24.005Z,100502.54
2018-04-17T21:53:51.642Z,100507.05
2018-04-17T21:56:19.286Z,100514.92
2018-04-17T21:58:46.949Z,100524.73
2018-04-17T22:01:14.515Z,100529.19
2018-04-17T22:03:42.082Z,100535.62
2018-04-17T22:06:09.666Z,100532.25
2018-04-17T22:08:37.234Z,100539.80
2018-04-17T22:11:04.976Z,100532.53
2018-04-17T22:13:32.663Z,100534.63
2018-04-17T22:16:00.224Z,100537.24
2018-04-17T22:18:27.804Z,100535.89
2018-04-17T22:20:55.384Z,100530.48
2018-04-17T22:23:23.050Z,100537.95
2018-04-17T22:25:50.650Z,100536.23
2018-04-17T22:28:18.270Z,100538.70
2018-04-17T22:30:45.902Z,100530.00
2018-04-17T22:33:13.505Z,100527.30
2018-04-17T22:35:41.129Z,100536.34
2018-04-17T22:38:08.776Z,100537.58
2018-04-17T22:40:36.384Z,100536.25
2018-04-17T22:43:03.989Z,100538.59
2018-04-17T22:45:31.594Z,100538.78
2018-04-17T22:47:59.252Z,100537.34
2018-04-17T22:50:26.913Z,100533.28
2018-04-17T22:52:54.528Z,100527.09
2018-04-17T22:55:22.149Z,100531.45
2018-04-17T22:57:49.812Z,100525.34
2018-04-17T23:00:17.428Z,100526.98
2018-04-17T23:02:44.993Z,100524.64
2018-04-17T23:05:12.566Z,100535.66
2018-04-17T23:07:40.201Z,100540.41
2018-04-17T23:10:07.783Z,100542.27
2018-04-17T23:12:35.505Z,100539.27
2018-04-17T23:15:03.227Z,100545.13
2018-04-17T23:17:30.909Z,100552.37
2018-04-17T23:19:59.489Z,100545.87
2018-04-17T23:22:27.057Z,100550.27
2018-04-17T23:24:54.737Z,100555.19
2018-04-17T23:27:22.300Z,100553.23
2018-04-17T23:29:49.929Z,100548.16
2018-04-17T23:32:17.501Z,100557.62
2018-04-17T23:34:45.072Z,100555.34
2018-04-17T23:37:12.717Z,100557.88
2018-04-17T23:39:40.281Z,100550.17
2018-04-17T23:42:07.826Z,100553.16
2018-04-17T23:44:35.465Z,100552.97
2018-04-17T23:47:03.094Z,100560.25
2018-04-17T23:49:30.712Z,100560.79
2018-04-17T23:51:58.325Z,100565.17
2018-04-17T23:54:25.901Z,100567.67
2018-04-17T23:56:53.480Z,100573.12
2018-04-17T23:59:21.044Z,100567.55
